sensor_id;sensor_type;location;lat;lon;timestamp;temperature;humidity
36716;DHT22;22699;51.034;3.730;2023-03-01T00:02:25;3.50;89.30
36716;DHT22;22699;51.034;3.730;2023-03-01T00:04:51;3.40;89.30
36716;DHT22;22699;51.034;3.730;2023-03-01T00:07:17;3.40;89.30
36716;DHT22;22699;51.034;3.730;2023-03-01T00:09:43;3.40;89.80
36716;DHT22;22699;51.034;3.730;2023-03-01T00:12:11;3.40;90.00
36716;DHT22;22699;51.034;3.730;2023-03-01T00:14:37;3.50;90.20
36716;DHT22;22699;51.034;3.730;2023-03-01T00:17:02;3.40;90.40
36716;DHT22;22699;51.034;3.730;2023-03-01T00:19:28;3.40;90.60
36716;DHT22;22699;51.034;3.730;2023-03-01T00:21:54;3.40;91.00
36716;DHT22;22699;51.034;3.730;2023-03-01T00:24:19;3.40;91.20
36716;DHT22;22699;51.034;3.730;2023-03-01T00:26:46;3.40;91.40
36716;DHT22;22699;51.034;3.730;2023-03-01T00:29:12;3.30;91.70
36716;DHT22;22699;51.034;3.730;2023-03-01T00:31:38;3.30;91.90
36716;DHT22;22699;51.034;3.730;2023-03-01T00:34:05;3.30;92.00
36716;DHT22;22699;51.034;3.730;2023-03-01T00:36:34;3.30;92.20
36716;DHT22;22699;51.034;3.730;2023-03-01T00:39:01;3.30;92.30
36716;DHT22;22699;51.034;3.730;2023-03-01T00:41:28;3.30;92.40
36716;DHT22;22699;51.034;3.730;2023-03-01T00:43:57;3.30;92.60
36716;DHT22;22699;51.034;3.730;2023-03-01T00:46:25;3.20;93.00
36716;DHT22;22699;51.034;3.730;2023-03-01T00:48:51;3.20;93.00
36716;DHT22;22699;51.034;3.730;2023-03-01T00:51:20;3.30;93.30
36716;DHT22;22699;51.034;3.730;2023-03-01T00:53:47;3.30;93.60
36716;DHT22;22699;51.034;3.730;2023-03-01T00:56:14;3.30;93.90
36716;DHT22;22699;51.034;3.730;2023-03-01T00:58:40;3.20;94.30
36716;DHT22;22699;51.034;3.730;2023-03-01T01:01:14;3.20;94.70
36716;DHT22;22699;51.034;3.730;2023-03-01T01:03:49;3.10;95.10
36716;DHT22;22699;51.034;3.730;2023-03-01T01:06:24;3.20;95.20
36716;DHT22;22699;51.034;3.730;2023-03-01T01:08:51;3.20;95.30
36716;DHT22;22699;51.034;3.730;2023-03-01T01:11:17;3.20;95.30
36716;DHT22;22699;51.034;3.730;2023-03-01T01:13:45;3.20;95.50
36716;DHT22;22699;51.034;3.730;2023-03-01T01:16:12;3.10;95.70
36716;DHT22;22699;51.034;3.730;2023-03-01T01:18:38;3.10;95.90
36716;DHT22;22699;51.034;3.730;2023-03-01T01:21:13;3.10;96.10
36716;DHT22;22699;51.034;3.730;2023-03-01T01:23:39;3.10;96.40
36716;DHT22;22699;51.034;3.730;2023-03-01T01:26:09;3.00;96.70
36716;DHT22;22699;51.034;3.730;2023-03-01T01:28:37;3.00;97.00
36716;DHT22;22699;51.034;3.730;2023-03-01T01:31:04;3.00;97.40
36716;DHT22;22699;51.034;3.730;2023-03-01T01:33:35;3.10;97.70
36716;DHT22;22699;51.034;3.730;2023-03-01T01:36:03;3.00;98.00
36716;DHT22;22699;51.034;3.730;2023-03-01T01:38:30;3.00;98.30
36716;DHT22;22699;51.034;3.730;2023-03-01T01:40:59;2.90;98.70
36716;DHT22;22699;51.034;3.730;2023-03-01T01:43:34;2.90;99.30
36716;DHT22;22699;51.034;3.730;2023-03-01T01:46:27;2.80;99.50
36716;DHT22;22699;51.034;3.730;2023-03-01T01:49:07;2.80;99.70
36716;DHT22;22699;51.034;3.730;2023-03-01T01:51:40;2.80;99.90
36716;DHT22;22699;51.034;3.730;2023-03-01T01:54:25;2.80;99.90
36716;DHT22;22699;51.034;3.730;2023-03-01T01:57:00;2.90;99.90
36716;DHT22;22699;51.034;3.730;2023-03-01T01:59:29;2.90;99.90
36716;DHT22;22699;51.034;3.730;2023-03-01T02:01:58;2.90;99.90
36716;DHT22;22699;51.034;3.730;2023-03-01T02:04:25;2.90;99.90
36716;DHT22;22699;51.034;3.730;2023-03-01T02:07:06;2.80;99.90
36716;DHT22;22699;51.034;3.730;2023-03-01T02:09:33;2.80;99.90
36716;DHT22;22699;51.034;3.730;2023-03-01T02:12:02;2.80;99.90
36716;DHT22;22699;51.034;3.730;2023-03-01T02:14:31;2.80;99.90
36716;DHT22;22699;51.034;3.730;2023-03-01T02:16:57;2.80;99.90
36716;DHT22;22699;51.034;3.730;2023-03-01T02:19:57;2.80;99.90
36716;DHT22;22699;51.034;3.730;2023-03-01T02:22:30;2.70;99.90
36716;DHT22;22699;51.034;3.730;2023-03-01T02:30:37;2.70;99.90
36716;DHT22;22699;51.034;3.730;2023-03-01T02:33:24;2.70;99.90
36716;DHT22;22699;51.034;3.730;2023-03-01T02:35:51;2.70;99.90
36716;DHT22;22699;51.034;3.730;2023-03-01T02:38:18;2.70;99.90
36716;DHT22;22699;51.034;3.730;2023-03-01T02:40:48;2.60;99.90
36716;DHT22;22699;51.034;3.730;2023-03-01T02:43:16;2.60;99.90
36716;DHT22;22699;51.034;3.730;2023-03-01T02:45:49;2.60;99.90
36716;DHT22;22699;51.034;3.730;2023-03-01T02:48:17;2.60;99.90
36716;DHT22;22699;51.034;3.730;2023-03-01T02:51:04;2.60;99.90
36716;DHT22;22699;51.034;3.730;2023-03-01T02:53:45;2.60;99.90
36716;DHT22;22699;51.034;3.730;2023-03-01T02:56:16;2.50;99.90
36716;DHT22;22699;51.034;3.730;2023-03-01T02:58:43;2.60;99.90
36716;DHT22;22699;51.034;3.730;2023-03-01T03:01:18;2.60;99.90
36716;DHT22;22699;51.034;3.730;2023-03-01T03:03:44;2.50;99.90
36716;DHT22;22699;51.034;3.730;2023-03-01T03:06:10;2.50;99.90
36716;DHT22;22699;51.034;3.730;2023-03-01T03:08:37;2.40;99.90
36716;DHT22;22699;51.034;3.730;2023-03-01T03:11:02;2.40;99.90
36716;DHT22;22699;51.034;3.730;2023-03-01T03:13:28;2.40;99.90
36716;DHT22;22699;51.034;3.730;2023-03-01T03:15:56;2.30;99.90
36716;DHT22;22699;51.034;3.730;2023-03-01T03:18:22;2.40;99.90
36716;DHT22;22699;51.034;3.730;2023-03-01T03:20:51;2.40;99.90
36716;DHT22;22699;51.034;3.730;2023-03-01T03:23:19;2.40;99.90
36716;DHT22;22699;51.034;3.730;2023-03-01T03:25:45;2.30;99.90
36716;DHT22;22699;51.034;3.730;2023-03-01T03:28:12;2.30;99.90
36716;DHT22;22699;51.034;3.730;2023-03-01T03:30:40;2.30;99.90
36716;DHT22;22699;51.034;3.730;2023-03-01T03:33:06;2.30;99.90
36716;DHT22;22699;51.034;3.730;2023-03-01T03:35:39;2.30;99.90
36716;DHT22;22699;51.034;3.730;2023-03-01T03:38:07;2.40;99.90
36716;DHT22;22699;51.034;3.730;2023-03-01T03:43:20;2.30;99.90
36716;DHT22;22699;51.034;3.730;2023-03-01T03:45:47;2.30;99.90
36716;DHT22;22699;51.034;3.730;2023-03-01T03:48:14;2.30;99.90
36716;DHT22;22699;51.034;3.730;2023-03-01T03:50:41;2.40;99.90
36716;DHT22;22699;51.034;3.730;2023-03-01T03:53:09;2.40;99.90
36716;DHT22;22699;51.034;3.730;2023-03-01T03:55:36;2.30;99.90
36716;DHT22;22699;51.034;3.730;2023-03-01T03:58:06;2.30;99.90
36716;DHT22;22699;51.034;3.730;2023-03-01T04:00:36;2.20;99.90
36716;DHT22;22699;51.034;3.730;2023-03-01T04:03:02;2.20;99.90
36716;DHT22;22699;51.034;3.730;2023-03-01T04:05:28;2.20;99.90
36716;DHT22;22699;51.034;3.730;2023-03-01T04:07:55;2.20;99.90
36716;DHT22;22699;51.034;3.730;2023-03-01T04:10:41;2.20;99.90
36716;DHT22;22699;51.034;3.730;2023-03-01T04:13:09;2.10;99.90
36716;DHT22;22699;51.034;3.730;2023-03-01T04:15:36;2.20;99.90
36716;DHT22;22699;51.034;3.730;2023-03-01T04:18:02;2.20;99.90
36716;DHT22;22699;51.034;3.730;2023-03-01T04:20:31;2.10;99.90
36716;DHT22;22699;51.034;3.730;2023-03-01T04:25:24;2.10;99.90
36716;DHT22;22699;51.034;3.730;2023-03-01T04:27:50;2.10;99.90
36716;DHT22;22699;51.034;3.730;2023-03-01T04:30:17;2.10;99.90
36716;DHT22;22699;51.034;3.730;2023-03-01T04:32:42;2.10;99.90
36716;DHT22;22699;51.034;3.730;2023-03-01T04:35:11;2.10;99.90
36716;DHT22;22699;51.034;3.730;2023-03-01T04:37:37;2.10;99.90
36716;DHT22;22699;51.034;3.730;2023-03-01T04:40:04;2.10;99.90
36716;DHT22;22699;51.034;3.730;2023-03-01T04:42:38;2.00;99.90
36716;DHT22;22699;51.034;3.730;2023-03-01T04:45:04;2.00;99.90
36716;DHT22;22699;51.034;3.730;2023-03-01T04:47:41;2.10;99.90
36716;DHT22;22699;51.034;3.730;2023-03-01T04:50:12;2.10;99.90
36716;DHT22;22699;51.034;3.730;2023-03-01T04:52:38;2.10;99.90
36716;DHT22;22699;51.034;3.730;2023-03-01T04:55:04;2.00;99.90
36716;DHT22;22699;51.034;3.730;2023-03-01T04:57:30;2.00;99.90
36716;DHT22;22699;51.034;3.730;2023-03-01T04:59:56;2.00;99.90
36716;DHT22;22699;51.034;3.730;2023-03-01T05:02:23;2.00;99.90
36716;DHT22;22699;51.034;3.730;2023-03-01T05:04:49;2.00;99.90
36716;DHT22;22699;51.034;3.730;2023-03-01T05:07:15;1.70;99.90
36716;DHT22;22699;51.034;3.730;2023-03-01T05:09:47;1.90;99.90
36716;DHT22;22699;51.034;3.730;2023-03-01T05:12:14;1.90;99.90
36716;DHT22;22699;51.034;3.730;2023-03-01T05:14:41;1.90;99.90
36716;DHT22;22699;51.034;3.730;2023-03-01T05:17:07;1.90;99.90
36716;DHT22;22699;51.034;3.730;2023-03-01T05:19:33;2.00;99.90
36716;DHT22;22699;51.034;3.730;2023-03-01T05:21:59;1.90;99.90
36716;DHT22;22699;51.034;3.730;2023-03-01T05:24:33;1.90;99.90
36716;DHT22;22699;51.034;3.730;2023-03-01T05:26:59;1.80;99.90
36716;DHT22;22699;51.034;3.730;2023-03-01T05:29:27;1.80;99.90
36716;DHT22;22699;51.034;3.730;2023-03-01T05:31:58;1.90;99.90
36716;DHT22;22699;51.034;3.730;2023-03-01T05:34:30;1.90;99.90
36716;DHT22;22699;51.034;3.730;2023-03-01T05:36:56;1.80;99.90
36716;DHT22;22699;51.034;3.730;2023-03-01T05:39:23;1.90;99.90
36716;DHT22;22699;51.034;3.730;2023-03-01T05:41:53;1.80;99.90
36716;DHT22;22699;51.034;3.730;2023-03-01T05:44:19;1.80;99.90
36716;DHT22;22699;51.034;3.730;2023-03-01T05:46:48;1.80;99.90
36716;DHT22;22699;51.034;3.730;2023-03-01T05:49:15;1.70;99.90
36716;DHT22;22699;51.034;3.730;2023-03-01T05:51:41;1.70;99.90
36716;DHT22;22699;51.034;3.730;2023-03-01T05:54:09;1.80;99.90
36716;DHT22;22699;51.034;3.730;2023-03-01T05:56:36;1.80;99.90
36716;DHT22;22699;51.034;3.730;2023-03-01T05:59:02;1.70;99.90
36716;DHT22;22699;51.034;3.730;2023-03-01T06:01:28;1.80;99.90
36716;DHT22;22699;51.034;3.730;2023-03-01T06:03:55;1.90;99.90
36716;DHT22;22699;51.034;3.730;2023-03-01T06:06:24;1.80;99.90
36716;DHT22;22699;51.034;3.730;2023-03-01T06:08:50;1.80;99.90
36716;DHT22;22699;51.034;3.730;2023-03-01T06:11:15;1.90;99.90
36716;DHT22;22699;51.034;3.730;2023-03-01T06:13:42;1.80;99.90
36716;DHT22;22699;51.034;3.730;2023-03-01T06:16:08;1.70;99.90
36716;DHT22;22699;51.034;3.730;2023-03-01T06:18:35;1.70;99.90
36716;DHT22;22699;51.034;3.730;2023-03-01T06:21:00;1.70;99.90
36716;DHT22;22699;51.034;3.730;2023-03-01T06:23:26;1.70;99.90
36716;DHT22;22699;51.034;3.730;2023-03-01T06:25:52;1.70;99.90
36716;DHT22;22699;51.034;3.730;2023-03-01T06:28:17;1.80;99.90
36716;DHT22;22699;51.034;3.730;2023-03-01T06:30:43;1.70;99.90
36716;DHT22;22699;51.034;3.730;2023-03-01T06:33:09;1.70;99.90
36716;DHT22;22699;51.034;3.730;2023-03-01T06:35:34;1.70;99.90
36716;DHT22;22699;51.034;3.730;2023-03-01T06:38:02;1.80;99.90
36716;DHT22;22699;51.034;3.730;2023-03-01T06:40:32;1.80;99.90
36716;DHT22;22699;51.034;3.730;2023-03-01T06:42:58;1.80;99.90
36716;DHT22;22699;51.034;3.730;2023-03-01T06:45:26;1.90;99.90
36716;DHT22;22699;51.034;3.730;2023-03-01T06:47:56;1.80;99.90
36716;DHT22;22699;51.034;3.730;2023-03-01T06:50:26;1.80;99.90
36716;DHT22;22699;51.034;3.730;2023-03-01T06:52:56;1.80;99.90
36716;DHT22;22699;51.034;3.730;2023-03-01T06:55:23;1.70;99.90
36716;DHT22;22699;51.034;3.730;2023-03-01T06:57:59;1.70;99.90
36716;DHT22;22699;51.034;3.730;2023-03-01T07:00:28;1.70;99.90
36716;DHT22;22699;51.034;3.730;2023-03-01T07:02:54;1.70;99.90
36716;DHT22;22699;51.034;3.730;2023-03-01T07:05:23;1.70;99.90
36716;DHT22;22699;51.034;3.730;2023-03-01T07:07:49;1.70;99.90
36716;DHT22;22699;51.034;3.730;2023-03-01T07:10:15;1.80;99.90
36716;DHT22;22699;51.034;3.730;2023-03-01T07:12:41;1.80;99.90
36716;DHT22;22699;51.034;3.730;2023-03-01T07:15:08;1.80;99.90
36716;DHT22;22699;51.034;3.730;2023-03-01T07:17:34;1.80;99.90
36716;DHT22;22699;51.034;3.730;2023-03-01T07:20:00;1.80;99.90
36716;DHT22;22699;51.034;3.730;2023-03-01T07:22:26;1.80;99.90
36716;DHT22;22699;51.034;3.730;2023-03-01T07:24:51;1.80;99.90
36716;DHT22;22699;51.034;3.730;2023-03-01T07:27:18;1.80;99.90
36716;DHT22;22699;51.034;3.730;2023-03-01T07:29:43;1.80;99.90
36716;DHT22;22699;51.034;3.730;2023-03-01T07:32:09;1.80;99.90
36716;DHT22;22699;51.034;3.730;2023-03-01T07:34:39;1.90;99.90
36716;DHT22;22699;51.034;3.730;2023-03-01T07:37:04;2.10;99.90
36716;DHT22;22699;51.034;3.730;2023-03-01T07:39:33;2.10;99.90
36716;DHT22;22699;51.034;3.730;2023-03-01T07:41:59;2.20;99.90
36716;DHT22;22699;51.034;3.730;2023-03-01T07:44:25;2.30;99.90
36716;DHT22;22699;51.034;3.730;2023-03-01T07:46:50;2.30;99.90
36716;DHT22;22699;51.034;3.730;2023-03-01T07:49:21;2.40;99.90
36716;DHT22;22699;51.034;3.730;2023-03-01T07:51:47;2.30;99.90
36716;DHT22;22699;51.034;3.730;2023-03-01T07:54:13;2.40;99.90
36716;DHT22;22699;51.034;3.730;2023-03-01T07:56:38;2.60;99.90
36716;DHT22;22699;51.034;3.730;2023-03-01T07:59:06;2.60;99.90
36716;DHT22;22699;51.034;3.730;2023-03-01T08:01:31;2.60;99.90
36716;DHT22;22699;51.034;3.730;2023-03-01T08:03:57;2.60;99.90
36716;DHT22;22699;51.034;3.730;2023-03-01T08:06:22;2.60;99.90
36716;DHT22;22699;51.034;3.730;2023-03-01T08:08:48;2.70;99.90
36716;DHT22;22699;51.034;3.730;2023-03-01T08:11:14;3.80;99.90
36716;DHT22;22699;51.034;3.730;2023-03-01T08:13:40;6.30;97.70
36716;DHT22;22699;51.034;3.730;2023-03-01T08:16:09;8.80;94.80
36716;DHT22;22699;51.034;3.730;2023-03-01T08:18:35;10.70;87.90
36716;DHT22;22699;51.034;3.730;2023-03-01T08:21:04;13.00;80.60
36716;DHT22;22699;51.034;3.730;2023-03-01T08:23:31;15.50;69.80
36716;DHT22;22699;51.034;3.730;2023-03-01T08:28:33;16.80;57.40
36716;DHT22;22699;51.034;3.730;2023-03-01T08:31:00;17.30;55.50
36716;DHT22;22699;51.034;3.730;2023-03-01T08:33:25;16.90;53.90
36716;DHT22;22699;51.034;3.730;2023-03-01T08:35:52;16.30;54.30
36716;DHT22;22699;51.034;3.730;2023-03-01T08:38:17;17.40;53.40
36716;DHT22;22699;51.034;3.730;2023-03-01T08:40:44;17.80;51.10
36716;DHT22;22699;51.034;3.730;2023-03-01T08:43:09;18.50;50.70
36716;DHT22;22699;51.034;3.730;2023-03-01T08:45:36;19.20;49.30
36716;DHT22;22699;51.034;3.730;2023-03-01T08:48:01;20.10;47.60
36716;DHT22;22699;51.034;3.730;2023-03-01T08:50:28;20.50;47.00
36716;DHT22;22699;51.034;3.730;2023-03-01T08:52:53;21.00;46.00
36716;DHT22;22699;51.034;3.730;2023-03-01T08:55:19;21.60;44.80
36716;DHT22;22699;51.034;3.730;2023-03-01T08:57:46;22.30;43.80
36716;DHT22;22699;51.034;3.730;2023-03-01T09:00:12;21.70;43.80
36716;DHT22;22699;51.034;3.730;2023-03-01T09:02:41;20.10;44.20
36716;DHT22;22699;51.034;3.730;2023-03-01T09:05:08;18.30;46.00
36716;DHT22;22699;51.034;3.730;2023-03-01T09:07:35;17.20;47.50
36716;DHT22;22699;51.034;3.730;2023-03-01T09:10:01;17.20;48.00
36716;DHT22;22699;51.034;3.730;2023-03-01T09:12:28;16.90;48.50
36716;DHT22;22699;51.034;3.730;2023-03-01T09:14:55;16.70;48.80
36716;DHT22;22699;51.034;3.730;2023-03-01T09:17:21;17.30;48.90
36716;DHT22;22699;51.034;3.730;2023-03-01T09:19:47;17.20;48.50
36716;DHT22;22699;51.034;3.730;2023-03-01T09:22:13;18.20;47.40
36716;DHT22;22699;51.034;3.730;2023-03-01T09:24:40;18.70;46.90
36716;DHT22;22699;51.034;3.730;2023-03-01T09:27:06;18.00;46.70
36716;DHT22;22699;51.034;3.730;2023-03-01T09:29:36;17.30;48.10
36716;DHT22;22699;51.034;3.730;2023-03-01T09:32:02;17.40;48.40
36716;DHT22;22699;51.034;3.730;2023-03-01T09:34:28;17.20;47.80
36716;DHT22;22699;51.034;3.730;2023-03-01T09:36:53;17.20;49.00
36716;DHT22;22699;51.034;3.730;2023-03-01T09:39:19;18.10;47.70
36716;DHT22;22699;51.034;3.730;2023-03-01T09:41:59;17.20;46.80
36716;DHT22;22699;51.034;3.730;2023-03-01T09:47:37;14.40;51.20
36716;DHT22;22699;51.034;3.730;2023-03-01T09:50:21;14.20;51.70
36716;DHT22;22699;51.034;3.730;2023-03-01T09:53:13;13.00;52.60
36716;DHT22;22699;51.034;3.730;2023-03-01T09:55:51;11.10;56.50
36716;DHT22;22699;51.034;3.730;2023-03-01T09:58:31;9.70;59.40
36716;DHT22;22699;51.034;3.730;2023-03-01T10:01:30;9.00;61.40
36716;DHT22;22699;51.034;3.730;2023-03-01T10:06:44;7.00;67.40
36716;DHT22;22699;51.034;3.730;2023-03-01T10:09:15;6.60;69.10
36716;DHT22;22699;51.034;3.730;2023-03-01T10:11:51;6.10;71.00
36716;DHT22;22699;51.034;3.730;2023-03-01T10:16:59;5.60;71.60
36716;DHT22;22699;51.034;3.730;2023-03-01T10:19:39;5.70;71.90
36716;DHT22;22699;51.034;3.730;2023-03-01T10:22:18;5.70;72.40
36716;DHT22;22699;51.034;3.730;2023-03-01T10:24:47;5.70;72.70
36716;DHT22;22699;51.034;3.730;2023-03-01T10:32:32;5.60;73.20
36716;DHT22;22699;51.034;3.730;2023-03-01T10:34:58;5.60;73.60
36716;DHT22;22699;51.034;3.730;2023-03-01T10:37:24;5.60;72.50
36716;DHT22;22699;51.034;3.730;2023-03-01T10:40:06;5.60;72.70
36716;DHT22;22699;51.034;3.730;2023-03-01T10:42:36;5.60;73.30
36716;DHT22;22699;51.034;3.730;2023-03-01T10:45:35;5.70;73.20
36716;DHT22;22699;51.034;3.730;2023-03-01T10:48:23;5.70;73.10
36716;DHT22;22699;51.034;3.730;2023-03-01T10:51:17;5.70;73.20
36716;DHT22;22699;51.034;3.730;2023-03-01T10:53:48;5.70;73.40
36716;DHT22;22699;51.034;3.730;2023-03-01T10:56:15;5.80;73.20
36716;DHT22;22699;51.034;3.730;2023-03-01T10:59:02;5.90;72.70
36716;DHT22;22699;51.034;3.730;2023-03-01T11:01:32;5.90;72.50
36716;DHT22;22699;51.034;3.730;2023-03-01T11:06:35;5.90;73.50
36716;DHT22;22699;51.034;3.730;2023-03-01T11:09:22;5.80;73.40
36716;DHT22;22699;51.034;3.730;2023-03-01T11:11:56;5.80;73.00
36716;DHT22;22699;51.034;3.730;2023-03-01T11:14:25;5.90;73.20
36716;DHT22;22699;51.034;3.730;2023-03-01T11:17:05;6.00;73.40
36716;DHT22;22699;51.034;3.730;2023-03-01T11:19:32;6.10;73.30
36716;DHT22;22699;51.034;3.730;2023-03-01T11:22:12;6.10;73.20
36716;DHT22;22699;51.034;3.730;2023-03-01T11:24:43;6.10;72.10
36716;DHT22;22699;51.034;3.730;2023-03-01T11:27:24;6.30;72.00
36716;DHT22;22699;51.034;3.730;2023-03-01T11:32:29;6.70;70.80
36716;DHT22;22699;51.034;3.730;2023-03-01T11:35:02;6.40;70.90
36716;DHT22;22699;51.034;3.730;2023-03-01T11:38:04;6.30;72.10
36716;DHT22;22699;51.034;3.730;2023-03-01T11:41:03;6.20;71.90
36716;DHT22;22699;51.034;3.730;2023-03-01T11:51:56;6.50;70.40
36716;DHT22;22699;51.034;3.730;2023-03-01T11:54:50;6.50;71.60
36716;DHT22;22699;51.034;3.730;2023-03-01T12:00:07;6.50;69.80
36716;DHT22;22699;51.034;3.730;2023-03-01T12:03:06;7.00;70.30
36716;DHT22;22699;51.034;3.730;2023-03-01T12:08:31;6.50;70.00
36716;DHT22;22699;51.034;3.730;2023-03-01T12:19:46;6.70;69.60
36716;DHT22;22699;51.034;3.730;2023-03-01T12:30:56;6.90;69.50
36716;DHT22;22699;51.034;3.730;2023-03-01T12:33:53;6.70;69.60
36716;DHT22;22699;51.034;3.730;2023-03-01T12:36:58;6.80;70.20
36716;DHT22;22699;51.034;3.730;2023-03-01T12:40:03;6.70;68.90
36716;DHT22;22699;51.034;3.730;2023-03-01T12:51:14;7.20;68.10
36716;DHT22;22699;51.034;3.730;2023-03-01T12:53:47;7.10;68.00
36716;DHT22;22699;51.034;3.730;2023-03-01T12:56:22;7.00;68.10
36716;DHT22;22699;51.034;3.730;2023-03-01T13:02:09;7.10;67.90
36716;DHT22;22699;51.034;3.730;2023-03-01T13:07:39;7.20;68.00
36716;DHT22;22699;51.034;3.730;2023-03-01T13:11:03;7.30;67.50
36716;DHT22;22699;51.034;3.730;2023-03-01T13:13:19;7.30;66.50
36716;DHT22;22699;51.034;3.730;2023-03-01T13:15:46;7.20;66.80
36716;DHT22;22699;51.034;3.730;2023-03-01T13:20:53;7.30;67.60
36716;DHT22;22699;51.034;3.730;2023-03-01T13:26:12;7.50;66.70
36716;DHT22;22699;51.034;3.730;2023-03-01T13:33:52;7.60;66.60
36716;DHT22;22699;51.034;3.730;2023-03-01T13:39:26;7.50;66.50
36716;DHT22;22699;51.034;3.730;2023-03-01T13:41:57;7.40;67.20
36716;DHT22;22699;51.034;3.730;2023-03-01T13:47:13;7.50;67.70
36716;DHT22;22699;51.034;3.730;2023-03-01T13:50:00;7.50;67.90
36716;DHT22;22699;51.034;3.730;2023-03-01T13:54:57;7.70;67.60
36716;DHT22;22699;51.034;3.730;2023-03-01T13:57:28;8.20;67.00
36716;DHT22;22699;51.034;3.730;2023-03-01T13:59:55;7.70;66.50
36716;DHT22;22699;51.034;3.730;2023-03-01T14:02:22;7.80;66.40
36716;DHT22;22699;51.034;3.730;2023-03-01T14:04:58;7.80;67.20
36716;DHT22;22699;51.034;3.730;2023-03-01T14:07:25;7.70;67.60
36716;DHT22;22699;51.034;3.730;2023-03-01T14:10:06;7.70;67.90
36716;DHT22;22699;51.034;3.730;2023-03-01T14:15:29;7.80;67.70
36716;DHT22;22699;51.034;3.730;2023-03-01T14:18:09;7.90;67.80
36716;DHT22;22699;51.034;3.730;2023-03-01T14:20:42;7.80;68.40
36716;DHT22;22699;51.034;3.730;2023-03-01T14:23:18;7.80;68.40
36716;DHT22;22699;51.034;3.730;2023-03-01T14:25:52;8.00;68.40
36716;DHT22;22699;51.034;3.730;2023-03-01T14:28:22;7.90;68.80
36716;DHT22;22699;51.034;3.730;2023-03-01T14:30:56;7.90;68.90
36716;DHT22;22699;51.034;3.730;2023-03-01T14:38:42;7.90;68.80
36716;DHT22;22699;51.034;3.730;2023-03-01T14:41:14;7.80;69.00
36716;DHT22;22699;51.034;3.730;2023-03-01T14:43:56;7.70;68.90
36716;DHT22;22699;51.034;3.730;2023-03-01T14:46:27;7.70;69.70
36716;DHT22;22699;51.034;3.730;2023-03-01T14:48:58;7.70;68.70
36716;DHT22;22699;51.034;3.730;2023-03-01T14:51:28;7.60;68.80
36716;DHT22;22699;51.034;3.730;2023-03-01T14:53:55;7.60;69.00
36716;DHT22;22699;51.034;3.730;2023-03-01T14:56:21;7.60;69.00
36716;DHT22;22699;51.034;3.730;2023-03-01T14:58:50;7.50;69.50
36716;DHT22;22699;51.034;3.730;2023-03-01T15:01:18;7.60;69.60
36716;DHT22;22699;51.034;3.730;2023-03-01T15:03:48;7.60;69.30
36716;DHT22;22699;51.034;3.730;2023-03-01T15:06:20;7.60;69.70
36716;DHT22;22699;51.034;3.730;2023-03-01T15:08:49;7.60;70.10
36716;DHT22;22699;51.034;3.730;2023-03-01T15:11:23;7.60;70.20
36716;DHT22;22699;51.034;3.730;2023-03-01T15:13:51;7.60;70.40
36716;DHT22;22699;51.034;3.730;2023-03-01T15:16:30;7.80;70.00
36716;DHT22;22699;51.034;3.730;2023-03-01T15:19:05;7.70;70.00
36716;DHT22;22699;51.034;3.730;2023-03-01T15:21:38;7.70;69.90
36716;DHT22;22699;51.034;3.730;2023-03-01T15:27:00;7.70;70.20
36716;DHT22;22699;51.034;3.730;2023-03-01T15:29:32;7.60;69.60
36716;DHT22;22699;51.034;3.730;2023-03-01T15:32:34;7.70;69.50
36716;DHT22;22699;51.034;3.730;2023-03-01T15:35:42;7.70;68.90
36716;DHT22;22699;51.034;3.730;2023-03-01T15:40:59;7.50;68.90
36716;DHT22;22699;51.034;3.730;2023-03-01T15:43:45;7.40;69.20
36716;DHT22;22699;51.034;3.730;2023-03-01T15:46:32;7.50;69.50
36716;DHT22;22699;51.034;3.730;2023-03-01T15:51:53;7.50;69.80
36716;DHT22;22699;51.034;3.730;2023-03-01T15:54:22;7.40;70.10
36716;DHT22;22699;51.034;3.730;2023-03-01T15:56:50;7.50;70.20
36716;DHT22;22699;51.034;3.730;2023-03-01T15:59:17;7.60;70.10
36716;DHT22;22699;51.034;3.730;2023-03-01T16:01:44;7.60;69.70
36716;DHT22;22699;51.034;3.730;2023-03-01T16:04:11;7.60;70.00
36716;DHT22;22699;51.034;3.730;2023-03-01T16:06:47;7.60;70.20
36716;DHT22;22699;51.034;3.730;2023-03-01T16:09:23;7.40;70.00
36716;DHT22;22699;51.034;3.730;2023-03-01T16:11:50;7.50;70.20
36716;DHT22;22699;51.034;3.730;2023-03-01T16:14:16;7.30;70.80
36716;DHT22;22699;51.034;3.730;2023-03-01T16:16:43;7.30;71.10
36716;DHT22;22699;51.034;3.730;2023-03-01T16:19:08;7.30;71.50
36716;DHT22;22699;51.034;3.730;2023-03-01T16:21:34;7.40;71.20
36716;DHT22;22699;51.034;3.730;2023-03-01T16:24:00;7.30;70.90
36716;DHT22;22699;51.034;3.730;2023-03-01T16:26:26;7.30;71.30
36716;DHT22;22699;51.034;3.730;2023-03-01T16:28:55;7.30;70.80
36716;DHT22;22699;51.034;3.730;2023-03-01T16:31:23;7.20;71.00
36716;DHT22;22699;51.034;3.730;2023-03-01T16:33:53;7.20;71.20
36716;DHT22;22699;51.034;3.730;2023-03-01T16:36:21;7.20;71.10
36716;DHT22;22699;51.034;3.730;2023-03-01T16:38:51;7.10;71.50
36716;DHT22;22699;51.034;3.730;2023-03-01T16:41:19;7.10;71.70
36716;DHT22;22699;51.034;3.730;2023-03-01T16:43:45;7.10;71.90
36716;DHT22;22699;51.034;3.730;2023-03-01T16:46:21;7.10;72.00
36716;DHT22;22699;51.034;3.730;2023-03-01T16:48:48;7.00;72.10
36716;DHT22;22699;51.034;3.730;2023-03-01T16:51:14;7.10;72.10
36716;DHT22;22699;51.034;3.730;2023-03-01T16:53:40;7.10;72.40
36716;DHT22;22699;51.034;3.730;2023-03-01T16:56:08;7.20;71.90
36716;DHT22;22699;51.034;3.730;2023-03-01T16:58:37;7.30;71.50
36716;DHT22;22699;51.034;3.730;2023-03-01T17:01:11;7.40;71.40
36716;DHT22;22699;51.034;3.730;2023-03-01T17:03:38;7.30;71.20
36716;DHT22;22699;51.034;3.730;2023-03-01T17:06:06;7.20;71.20
36716;DHT22;22699;51.034;3.730;2023-03-01T17:08:36;7.30;71.20
36716;DHT22;22699;51.034;3.730;2023-03-01T17:11:10;7.20;71.20
36716;DHT22;22699;51.034;3.730;2023-03-01T17:13:37;7.10;72.00
36716;DHT22;22699;51.034;3.730;2023-03-01T17:16:08;7.00;71.90
36716;DHT22;22699;51.034;3.730;2023-03-01T17:18:34;6.90;72.10
36716;DHT22;22699;51.034;3.730;2023-03-01T17:21:01;6.80;72.00
36716;DHT22;22699;51.034;3.730;2023-03-01T17:23:29;6.80;72.20
36716;DHT22;22699;51.034;3.730;2023-03-01T17:25:55;6.80;72.50
36716;DHT22;22699;51.034;3.730;2023-03-01T17:28:23;6.70;72.40
36716;DHT22;22699;51.034;3.730;2023-03-01T17:30:49;6.70;72.40
36716;DHT22;22699;51.034;3.730;2023-03-01T17:33:15;6.60;72.40
36716;DHT22;22699;51.034;3.730;2023-03-01T17:35:41;6.70;72.40
36716;DHT22;22699;51.034;3.730;2023-03-01T17:38:12;6.70;72.20
36716;DHT22;22699;51.034;3.730;2023-03-01T17:40:38;6.60;72.10
36716;DHT22;22699;51.034;3.730;2023-03-01T17:43:05;6.60;72.30
36716;DHT22;22699;51.034;3.730;2023-03-01T17:45:30;6.70;72.20
36716;DHT22;22699;51.034;3.730;2023-03-01T17:47:56;6.60;71.80
36716;DHT22;22699;51.034;3.730;2023-03-01T17:50:22;6.60;72.10
36716;DHT22;22699;51.034;3.730;2023-03-01T17:52:48;6.50;72.30
36716;DHT22;22699;51.034;3.730;2023-03-01T17:55:14;6.50;72.40
36716;DHT22;22699;51.034;3.730;2023-03-01T17:57:40;6.40;72.60
36716;DHT22;22699;51.034;3.730;2023-03-01T18:00:09;6.40;72.80